createdAt,value
2023-02-27T11:30:42.871Z,60.3
2023-02-27T12:58:47.506Z,50
2023-02-27T13:04:57.500Z,50.4
2023-02-27T13:16:54.947Z,49.2
2023-02-27T13:29:03.718Z,47.9
2023-02-27T13:34:59.180Z,47
2023-02-27T13:53:19.257Z,46.8
2023-02-27T13:59:38.366Z,48.1
2023-02-27T14:05:42.604Z,46.2
2023-02-27T14:11:54.371Z,46.3
2023-02-27T14:18:20.172Z,46
2023-02-27T14:24:19.831Z,45.7
2023-02-27T14:30:58.289Z,46
2023-02-27T14:54:46.869Z,45.1
2023-02-27T15:07:26.458Z,45
2023-02-27T15:13:21.154Z,44.9
2023-02-27T15:19:22.740Z,44.9
2023-02-27T15:25:17.143Z,44.5
2023-02-27T15:31:11.806Z,44.3
2023-02-27T15:37:08.302Z,45.5
2023-02-27T15:42:59.373Z,44.4
2023-02-27T15:48:53.353Z,44.8
2023-02-27T15:54:58.332Z,45.3
2023-02-27T16:00:52.765Z,45.1
2023-02-27T16:06:53.391Z,44.8
2023-02-27T16:12:41.578Z,45.5
2023-02-27T16:18:47.444Z,45.5
2023-02-27T16:24:58.811Z,45.8
2023-02-27T16:31:03.370Z,45.9
2023-02-27T16:36:54.594Z,45.6
2023-02-27T16:42:44.606Z,45.9
2023-02-27T16:48:48.950Z,46.6
2023-02-27T16:54:41.381Z,47.3
2023-02-27T17:00:30.658Z,48
2023-02-27T17:06:38.745Z,48.9
2023-02-27T17:12:28.969Z,49.3
2023-02-27T17:18:22.333Z,49.6
2023-02-27T17:24:15.872Z,50.3
2023-02-27T17:30:07.406Z,49.9
2023-02-27T17:35:56.841Z,50.7
2023-02-27T17:41:50.974Z,50.4
2023-02-27T17:47:40.455Z,50.6
2023-02-27T17:53:34.637Z,50.8
2023-02-27T17:59:37.218Z,50.7
2023-02-27T18:05:29.558Z,51.2
2023-02-27T18:17:17.141Z,52.4
2023-02-27T18:23:08.182Z,52.7
2023-02-27T18:29:19.549Z,53.7
2023-02-27T18:41:04.485Z,54.2
2023-02-27T19:42:10.917Z,63.8
2023-02-27T19:48:17.185Z,65.9
2023-02-27T19:54:30.366Z,67.1
2023-02-27T20:12:39.408Z,68.1
2023-02-27T20:48:05.781Z,72.6
2023-02-27T20:53:56.890Z,73.1
2023-02-27T21:00:01.195Z,73.4
2023-02-27T21:05:52.826Z,74.1
2023-02-27T21:11:43.618Z,74.4
2023-02-27T21:17:53.843Z,75.3
2023-02-27T21:23:48.663Z,75.3
2023-02-27T21:30:06.749Z,74.7
2023-02-27T21:41:48.405Z,72.8
2023-02-27T21:47:39.260Z,72.2
2023-02-27T21:53:34.331Z,71.7
2023-02-27T22:05:37.192Z,71.7
2023-02-27T22:11:43.232Z,74
2023-02-27T22:42:05.644Z,75.6
2023-02-27T22:54:30.172Z,76.3
2023-02-27T23:00:35.557Z,75.4
2023-02-27T23:06:24.292Z,74.7
2023-02-27T23:12:27.966Z,74.9
2023-02-27T23:18:56.646Z,75.3
2023-02-27T23:24:59.640Z,74.9
2023-02-27T23:30:51.169Z,75.8
2023-02-27T23:36:48.852Z,75.9
2023-02-27T23:42:44.891Z,76.5
2023-02-27T23:48:40.770Z,76.3
2023-02-27T23:54:50.602Z,75
